createdAt,value
2023-08-20T00:02:33.127Z,0.20
2023-08-20T00:05:06.985Z,0.10
2023-08-20T00:07:38.401Z,0.20
2023-08-20T00:10:09.861Z,0.10
2023-08-20T00:12:40.585Z,0.00
2023-08-20T00:15:11.758Z,0.00
2023-08-20T00:17:44.784Z,0.00
2023-08-20T00:20:21.751Z,0.00
2023-08-20T00:22:52.944Z,0.10
2023-08-20T00:25:25.939Z,0.10
2023-08-20T00:27:56.305Z,0.00
2023-08-20T00:30:27.099Z,0.00
2023-08-20T00:32:58.771Z,0.10
2023-08-20T00:35:29.656Z,0.00
2023-08-20T00:38:00.555Z,0.00
2023-08-20T00:40:31.560Z,0.10
2023-08-20T00:43:03.253Z,0.10
2023-08-20T00:45:36.459Z,0.00
2023-08-20T00:48:09.054Z,0.00
2023-08-20T00:50:39.878Z,0.10
2023-08-20T00:53:12.192Z,0.10
2023-08-20T00:55:44.614Z,0.10
2023-08-20T00:58:15.773Z,0.03
2023-08-20T01:00:46.474Z,0.10
2023-08-20T01:03:17.634Z,0.03
2023-08-20T01:05:57.172Z,0.00
2023-08-20T01:08:41.698Z,0.03
2023-08-20T01:11:21.681Z,0.10
2023-08-20T01:13:52.385Z,0.00
2023-08-20T01:16:23.126Z,0.08
2023-08-20T01:18:54.496Z,0.00
2023-08-20T01:21:45.125Z,0.00
2023-08-20T01:24:26.820Z,0.20
2023-08-20T01:27:36.103Z,0.10
2023-08-20T01:30:07.830Z,0.00
2023-08-20T01:32:40.221Z,0.30
2023-08-20T01:35:16.331Z,0.00
2023-08-20T01:37:48.888Z,0.00
2023-08-20T01:40:21.081Z,0.10
2023-08-20T01:42:51.830Z,0.10
2023-08-20T01:45:22.834Z,0.10
2023-08-20T01:47:53.683Z,0.00
2023-08-20T01:50:24.606Z,0.00
2023-08-20T01:52:56.291Z,0.00
2023-08-20T01:55:28.013Z,0.05
2023-08-20T01:58:00.755Z,0.00
2023-08-20T02:00:32.109Z,0.22
2023-08-20T02:03:04.749Z,0.10
2023-08-20T02:05:35.519Z,0.10
2023-08-20T02:08:06.708Z,0.10
2023-08-20T02:10:39.420Z,0.10
2023-08-20T02:13:10.464Z,0.00
2023-08-20T02:15:42.364Z,0.08
2023-08-20T02:18:13.095Z,0.10
2023-08-20T02:20:46.853Z,0.10
2023-08-20T02:23:18.587Z,0.10
2023-08-20T02:25:51.830Z,0.10
2023-08-20T02:28:22.593Z,0.30
2023-08-20T02:30:55.059Z,0.10
2023-08-20T02:33:27.484Z,0.10
2023-08-20T02:35:59.107Z,0.10
2023-08-20T02:38:34.649Z,0.20
2023-08-20T02:41:08.566Z,0.10
2023-08-20T02:43:40.416Z,0.20
2023-08-20T02:46:11.107Z,0.10
2023-08-20T02:48:42.841Z,0.30
2023-08-20T02:51:14.789Z,0.50
2023-08-20T02:53:45.465Z,0.10
2023-08-20T02:56:17.108Z,0.10
2023-08-20T02:58:48.984Z,0.30
2023-08-20T03:01:26.901Z,0.10
2023-08-20T03:03:58.799Z,0.10
2023-08-20T03:06:31.057Z,0.08
2023-08-20T03:09:01.727Z,0.10
2023-08-20T03:11:34.115Z,0.10
2023-08-20T03:14:06.372Z,0.10
2023-08-20T03:16:37.376Z,0.10
2023-08-20T03:19:09.016Z,0.10
2023-08-20T03:21:39.807Z,0.10
2023-08-20T03:24:11.592Z,0.20
2023-08-20T03:26:43.194Z,0.10
2023-08-20T03:29:14.013Z,0.22
2023-08-20T03:31:46.346Z,0.10
2023-08-20T03:34:16.979Z,0.10
2023-08-20T03:36:47.697Z,0.05
2023-08-20T03:39:19.282Z,0.20
2023-08-20T03:41:50.402Z,0.10
2023-08-20T03:44:21.100Z,0.10
2023-08-20T03:46:51.889Z,0.10
2023-08-20T03:49:22.715Z,0.10
2023-08-20T03:51:53.417Z,0.10
2023-08-20T03:54:24.424Z,0.10
2023-08-20T03:56:56.921Z,0.10
2023-08-20T03:59:28.814Z,0.15
2023-08-20T04:01:59.769Z,0.20
2023-08-20T04:04:32.157Z,0.30
2023-08-20T04:07:03.032Z,0.10
2023-08-20T04:09:36.117Z,0.10
2023-08-20T04:12:08.425Z,0.10
2023-08-20T04:14:40.431Z,0.10
2023-08-20T04:17:11.454Z,0.20
2023-08-20T04:19:43.447Z,0.10
2023-08-20T04:22:14.763Z,0.20
2023-08-20T04:24:45.844Z,0.10
2023-08-20T04:27:16.960Z,0.20
2023-08-20T04:29:47.928Z,0.30
2023-08-20T04:32:22.032Z,0.20
2023-08-20T04:34:55.218Z,0.10
2023-08-20T04:37:27.097Z,0.20
2023-08-20T04:39:58.264Z,0.38
2023-08-20T04:42:29.008Z,0.20
2023-08-20T04:45:00.481Z,0.17
2023-08-20T04:47:31.907Z,0.20
2023-08-20T04:50:03.649Z,0.13
2023-08-20T04:52:34.435Z,0.20
2023-08-20T04:55:08.046Z,0.20
2023-08-20T04:57:38.904Z,0.10
2023-08-20T05:00:10.378Z,0.32
2023-08-20T05:02:42.553Z,0.28
2023-08-20T05:05:15.365Z,0.20
2023-08-20T05:07:47.530Z,0.40
2023-08-20T05:10:18.232Z,0.30
2023-08-20T05:12:50.173Z,0.45
2023-08-20T05:15:21.365Z,0.40
2023-08-20T05:17:52.353Z,0.30
2023-08-20T05:20:23.251Z,0.20
2023-08-20T05:22:55.147Z,0.20
2023-08-20T05:25:26.382Z,0.38
2023-08-20T05:27:58.544Z,0.20
2023-08-20T05:30:29.263Z,0.30
2023-08-20T05:33:01.346Z,0.30
2023-08-20T05:35:38.191Z,0.20
2023-08-20T05:38:13.149Z,0.20
2023-08-20T05:40:45.371Z,0.30
2023-08-20T05:43:16.430Z,0.47
2023-08-20T05:45:47.833Z,0.38
2023-08-20T05:48:19.038Z,0.30
2023-08-20T05:50:49.814Z,0.25
2023-08-20T05:53:22.448Z,0.43
2023-08-20T05:55:54.848Z,0.35
2023-08-20T05:58:27.191Z,0.30
2023-08-20T06:00:58.049Z,0.30
2023-08-20T06:03:30.427Z,0.20
2023-08-20T06:06:08.140Z,0.20
2023-08-20T06:08:43.741Z,0.43
2023-08-20T06:11:20.288Z,0.32
2023-08-20T06:13:52.158Z,0.30
2023-08-20T06:16:25.725Z,0.30
2023-08-20T06:18:57.247Z,0.30
2023-08-20T06:21:28.829Z,0.38
2023-08-20T06:24:00.883Z,0.22
2023-08-20T06:26:31.717Z,0.30
2023-08-20T06:29:03.050Z,0.50
2023-08-20T06:31:33.800Z,0.30
2023-08-20T06:34:05.809Z,0.22
2023-08-20T06:36:38.438Z,0.30
2023-08-20T06:39:11.707Z,0.30
2023-08-20T06:41:42.393Z,0.38
2023-08-20T06:44:13.883Z,0.77
2023-08-20T06:46:44.656Z,0.60
2023-08-20T06:49:15.964Z,1.50
2023-08-20T06:51:46.661Z,1.33
2023-08-20T06:54:20.316Z,2.15
2023-08-20T06:56:51.202Z,1.75
2023-08-20T06:59:22.950Z,0.60
2023-08-20T07:01:54.660Z,0.80
2023-08-20T07:04:27.072Z,1.00
2023-08-20T07:06:57.780Z,1.05
2023-08-20T07:09:29.445Z,1.00
2023-08-20T07:12:00.269Z,2.75
2023-08-20T07:14:31.071Z,1.05
2023-08-20T07:17:04.341Z,1.40
2023-08-20T07:19:35.128Z,1.08
2023-08-20T07:22:06.817Z,0.90
2023-08-20T07:24:39.726Z,0.55
2023-08-20T07:27:15.420Z,0.50
2023-08-20T07:29:46.287Z,1.08
2023-08-20T07:32:18.373Z,0.77
2023-08-20T07:34:49.812Z,0.50
2023-08-20T07:37:21.856Z,0.57
2023-08-20T07:39:54.449Z,0.63
2023-08-20T07:42:26.888Z,0.70
2023-08-20T07:44:59.879Z,0.40
2023-08-20T07:47:33.635Z,0.40
2023-08-20T07:50:05.063Z,0.85
2023-08-20T07:52:37.639Z,0.80
2023-08-20T07:55:08.672Z,0.68
2023-08-20T07:57:40.354Z,0.63
2023-08-20T08:00:11.647Z,0.55
2023-08-20T08:02:42.537Z,0.55
2023-08-20T08:05:13.782Z,0.50
2023-08-20T08:07:46.131Z,1.10
2023-08-20T08:10:17.873Z,0.60
2023-08-20T08:12:50.176Z,0.70
2023-08-20T08:15:21.542Z,0.60
2023-08-20T08:17:52.889Z,0.63
2023-08-20T08:20:23.832Z,0.57
2023-08-20T08:22:55.572Z,0.52
2023-08-20T08:25:26.390Z,0.40
2023-08-20T08:28:00.441Z,0.35
2023-08-20T08:30:32.860Z,0.50
2023-08-20T08:33:04.337Z,0.60
2023-08-20T08:35:37.130Z,0.50
2023-08-20T08:38:11.435Z,0.40
2023-08-20T08:40:46.263Z,0.50
2023-08-20T08:43:19.808Z,0.65
2023-08-20T08:45:54.085Z,0.50
2023-08-20T08:48:26.764Z,0.70
2023-08-20T08:51:00.197Z,0.47
2023-08-20T08:53:31.657Z,0.40
2023-08-20T08:56:02.777Z,0.60
2023-08-20T08:58:33.635Z,0.60
2023-08-20T09:01:05.642Z,0.50
2023-08-20T09:03:36.804Z,0.50
2023-08-20T09:06:13.444Z,0.70
2023-08-20T09:08:45.124Z,0.55
2023-08-20T09:11:17.655Z,0.52
2023-08-20T09:13:50.585Z,0.70
2023-08-20T09:16:22.632Z,0.50
2023-08-20T09:18:54.545Z,0.50
2023-08-20T09:21:32.784Z,0.60
2023-08-20T09:24:07.064Z,0.40
2023-08-20T09:26:38.166Z,0.80
2023-08-20T09:29:08.932Z,0.40
2023-08-20T09:31:43.621Z,0.50
2023-08-20T09:34:17.348Z,0.60
2023-08-20T09:36:48.368Z,0.75
2023-08-20T09:39:20.951Z,0.80
2023-08-20T09:41:53.269Z,0.88
2023-08-20T09:44:26.583Z,0.80
2023-08-20T09:46:58.110Z,0.82
2023-08-20T09:49:34.608Z,0.80
2023-08-20T09:52:14.812Z,0.85
2023-08-20T09:55:13.942Z,0.60
2023-08-20T09:57:46.703Z,0.98
2023-08-20T10:00:19.329Z,0.80
2023-08-20T10:02:51.555Z,0.82
2023-08-20T10:05:25.312Z,1.00
2023-08-20T10:07:57.428Z,1.27
2023-08-20T10:10:29.672Z,1.00
2023-08-20T10:13:02.221Z,1.45
2023-08-20T10:15:37.297Z,2.00
2023-08-20T10:18:11.295Z,2.13
2023-08-20T10:20:46.121Z,1.95
2023-08-20T10:23:18.562Z,1.95
2023-08-20T10:25:50.945Z,2.30
2023-08-20T10:28:28.489Z,2.00
2023-08-20T10:31:12.453Z,1.90
2023-08-20T10:33:54.384Z,1.65
2023-08-20T10:36:33.628Z,1.70
2023-08-20T10:39:08.838Z,1.20
2023-08-20T10:41:40.396Z,1.40
2023-08-20T10:44:12.177Z,1.35
2023-08-20T10:46:59.040Z,1.58
2023-08-20T10:49:31.764Z,1.35
2023-08-20T10:52:07.808Z,1.30
2023-08-20T10:54:39.932Z,1.50
2023-08-20T10:57:11.115Z,2.35
2023-08-20T10:59:44.776Z,2.10
2023-08-20T11:02:20.879Z,1.73
2023-08-20T11:04:52.912Z,1.77
2023-08-20T11:07:26.233Z,2.22
2023-08-20T11:09:58.427Z,2.70
2023-08-20T11:12:30.379Z,1.73
2023-08-20T11:15:07.206Z,1.05
2023-08-20T11:20:12.414Z,1.17
2023-08-20T11:22:45.616Z,1.27
2023-08-20T11:25:17.070Z,1.08
2023-08-20T11:27:48.296Z,2.00
2023-08-20T11:30:20.914Z,2.20
2023-08-20T11:32:56.755Z,2.38
2023-08-20T11:35:27.833Z,2.75
2023-08-20T11:38:01.493Z,2.60
2023-08-20T11:40:32.936Z,2.58
2023-08-20T11:43:03.942Z,2.10
2023-08-20T11:45:36.687Z,1.88
2023-08-20T11:48:09.375Z,2.08
2023-08-20T11:50:40.878Z,1.30
2023-08-20T11:53:13.897Z,1.10
2023-08-20T11:55:46.794Z,1.15
2023-08-20T11:58:18.980Z,1.42
2023-08-20T12:00:54.433Z,1.27
2023-08-20T12:03:25.366Z,0.93
2023-08-20T12:05:57.467Z,1.65
2023-08-20T12:08:42.006Z,1.35
2023-08-20T12:11:13.320Z,1.25
2023-08-20T12:13:45.519Z,1.48
2023-08-20T12:16:17.627Z,2.70
2023-08-20T12:18:51.631Z,4.40
2023-08-20T12:21:23.699Z,7.15
2023-08-20T12:23:54.469Z,8.43
2023-08-20T12:26:27.186Z,7.65
2023-08-20T12:28:59.352Z,6.63
2023-08-20T12:31:30.305Z,6.32
2023-08-20T12:34:02.237Z,3.35
2023-08-20T12:36:34.746Z,1.52
2023-08-20T12:39:07.939Z,1.98
2023-08-20T12:41:40.712Z,1.85
2023-08-20T12:44:11.500Z,1.83
2023-08-20T12:46:42.253Z,2.10
2023-08-20T12:49:14.502Z,2.55
2023-08-20T12:51:46.443Z,2.55
2023-08-20T12:54:17.255Z,2.47
2023-08-20T12:56:48.045Z,2.35
2023-08-20T12:59:19.278Z,1.77
2023-08-20T13:01:50.504Z,1.73
2023-08-20T13:04:22.672Z,1.17
2023-08-20T13:06:54.764Z,1.20
2023-08-20T13:09:27.164Z,0.93
2023-08-20T13:12:00.511Z,1.02
2023-08-20T13:14:32.584Z,1.30
2023-08-20T13:17:04.727Z,1.17
2023-08-20T13:19:35.483Z,0.93
2023-08-20T13:22:07.780Z,1.15
2023-08-20T13:24:40.664Z,1.65
2023-08-20T13:27:12.592Z,1.02
2023-08-20T13:29:46.337Z,0.93
2023-08-20T13:32:18.311Z,1.30
2023-08-20T13:34:50.030Z,1.05
2023-08-20T13:37:20.978Z,1.05
2023-08-20T13:39:51.872Z,1.38
2023-08-20T13:42:23.100Z,1.27
2023-08-20T13:44:56.249Z,1.70
2023-08-20T13:47:28.331Z,2.25
2023-08-20T13:49:59.445Z,1.80
2023-08-20T13:52:30.275Z,1.60
2023-08-20T13:55:02.195Z,1.65
2023-08-20T13:57:33.021Z,1.50
2023-08-20T14:00:05.600Z,1.52
2023-08-20T14:02:37.495Z,1.63
2023-08-20T14:05:09.190Z,1.35
2023-08-20T14:07:42.074Z,1.45
2023-08-20T14:10:14.274Z,1.40
2023-08-20T14:12:46.236Z,1.25
2023-08-20T14:15:17.021Z,1.48
2023-08-20T14:17:49.739Z,1.42
2023-08-20T14:20:21.525Z,1.15
2023-08-20T14:22:54.456Z,1.27
2023-08-20T14:25:25.418Z,1.30
2023-08-20T14:27:57.304Z,1.40
2023-08-20T14:30:29.395Z,1.38
2023-08-20T14:33:00.139Z,1.10
2023-08-20T14:35:32.871Z,1.20
2023-08-20T14:38:05.092Z,1.90
2023-08-20T14:40:38.453Z,2.70
2023-08-20T14:43:12.621Z,2.00
2023-08-20T14:45:45.556Z,2.30
2023-08-20T14:48:18.202Z,1.92
2023-08-20T14:50:49.838Z,2.50
2023-08-20T14:53:21.789Z,2.10
2023-08-20T14:55:54.214Z,2.63
2023-08-20T14:58:24.973Z,3.22
2023-08-20T15:00:56.674Z,3.80
2023-08-20T15:03:29.654Z,3.85
2023-08-20T15:06:01.541Z,3.80
2023-08-20T15:08:32.128Z,3.80
2023-08-20T15:11:06.188Z,4.47
2023-08-20T15:13:36.960Z,3.80
2023-08-20T15:16:07.920Z,3.17
2023-08-20T15:18:40.029Z,4.00
2023-08-20T15:21:12.639Z,4.15
2023-08-20T15:23:43.612Z,3.55
2023-08-20T15:26:14.503Z,5.05
2023-08-20T15:28:45.588Z,3.53
2023-08-20T15:31:15.960Z,3.20
2023-08-20T15:33:46.787Z,5.43
2023-08-20T15:36:17.649Z,3.25
2023-08-20T15:38:50.471Z,3.38
2023-08-20T15:41:22.402Z,3.55
2023-08-20T15:43:53.226Z,2.83
2023-08-20T15:46:24.017Z,3.58
2023-08-20T15:48:57.286Z,2.78
2023-08-20T15:51:28.030Z,2.30
2023-08-20T15:53:58.509Z,2.92
2023-08-20T15:56:29.373Z,2.63
2023-08-20T15:59:00.022Z,2.88
2023-08-20T16:01:31.014Z,2.67
2023-08-20T16:04:01.834Z,3.50
2023-08-20T16:06:32.293Z,3.75
2023-08-20T16:09:02.933Z,4.07
2023-08-20T16:11:33.805Z,3.88
2023-08-20T16:14:04.841Z,4.05
2023-08-20T16:16:36.572Z,4.35
2023-08-20T16:19:08.089Z,4.38
2023-08-20T16:21:38.400Z,3.95
2023-08-20T16:24:08.903Z,4.00
2023-08-20T16:26:39.189Z,4.38
2023-08-20T16:29:09.535Z,3.63
2023-08-20T16:31:39.997Z,4.00
2023-08-20T16:34:10.350Z,4.18
2023-08-20T16:36:40.639Z,3.45
2023-08-20T16:39:11.044Z,3.80
2023-08-20T16:41:41.892Z,3.50
2023-08-20T16:44:12.866Z,3.65
2023-08-20T16:46:43.213Z,4.40
2023-08-20T16:49:13.584Z,4.50
2023-08-20T16:51:44.148Z,3.80
2023-08-20T16:54:14.566Z,4.00
2023-08-20T16:56:45.228Z,3.38
2023-08-20T16:59:15.582Z,3.20
2023-08-20T17:01:47.036Z,3.55
2023-08-20T17:04:17.439Z,4.35
2023-08-20T17:06:47.776Z,3.78
2023-08-20T17:09:18.372Z,3.53
2023-08-20T17:11:49.795Z,3.95
2023-08-20T17:14:20.553Z,3.20
2023-08-20T17:16:51.658Z,4.07
2023-08-20T17:19:23.717Z,3.25
2023-08-20T17:21:54.934Z,2.10
2023-08-20T17:24:25.253Z,3.40
2023-08-20T17:26:56.168Z,2.03
2023-08-20T17:29:26.565Z,2.45
2023-08-20T17:31:56.998Z,2.60
2023-08-20T17:34:27.732Z,3.30
2023-08-20T17:36:58.749Z,4.57
2023-08-20T17:39:29.359Z,4.38
2023-08-20T17:41:59.753Z,4.30
2023-08-20T17:44:30.041Z,4.78
2023-08-20T17:47:00.331Z,4.90
2023-08-20T17:49:45.569Z,5.95
2023-08-20T17:52:15.920Z,6.07
2023-08-20T17:54:46.896Z,5.38
2023-08-20T17:57:17.584Z,6.55
2023-08-20T17:59:49.466Z,5.07
2023-08-20T18:02:22.170Z,5.25
2023-08-20T18:04:54.664Z,5.55
2023-08-20T18:07:25.096Z,5.13
2023-08-20T18:09:55.675Z,5.55
2023-08-20T18:12:26.259Z,6.72
2023-08-20T18:14:57.414Z,5.53
2023-08-20T18:17:27.731Z,6.07
2023-08-20T18:19:58.414Z,6.15
2023-08-20T18:22:28.741Z,5.53
2023-08-20T18:24:59.045Z,5.38
2023-08-20T18:27:29.283Z,7.70
2023-08-20T18:29:59.690Z,6.40
2023-08-20T18:32:29.981Z,6.80
2023-08-20T18:35:00.859Z,5.70
2023-08-20T18:37:31.222Z,5.53
2023-08-20T18:40:02.074Z,6.85
2023-08-20T18:42:34.991Z,6.10
2023-08-20T18:45:06.153Z,5.50
2023-08-20T18:47:36.559Z,6.07
2023-08-20T18:50:08.489Z,5.90
2023-08-20T18:52:39.261Z,4.90
2023-08-20T18:55:10.304Z,4.85
2023-08-20T18:57:40.550Z,5.80
2023-08-20T19:00:14.878Z,6.22
2023-08-20T19:02:45.334Z,6.05
2023-08-20T19:05:15.761Z,6.65
2023-08-20T19:07:50.272Z,5.50
2023-08-20T19:10:20.815Z,5.28
2023-08-20T19:12:51.158Z,6.25
2023-08-20T19:15:21.798Z,6.18
2023-08-20T19:17:52.228Z,5.55
2023-08-20T19:20:22.666Z,5.90
2023-08-20T19:22:52.931Z,7.03
2023-08-20T19:25:23.323Z,6.50
2023-08-20T19:27:53.793Z,5.43
2023-08-20T19:30:24.402Z,5.78
2023-08-20T19:32:54.748Z,5.32
2023-08-20T19:35:36.353Z,5.55
2023-08-20T19:38:08.271Z,6.28
2023-08-20T19:40:42.401Z,7.22
2023-08-20T19:43:12.804Z,6.18
2023-08-20T19:45:43.143Z,6.20
2023-08-20T19:48:14.802Z,6.05
2023-08-20T19:50:45.307Z,5.38
2023-08-20T19:53:16.027Z,6.15
2023-08-20T19:55:46.305Z,5.88
2023-08-20T19:58:17.709Z,6.50
2023-08-20T20:00:48.023Z,5.72
2023-08-20T20:03:18.338Z,5.47
2023-08-20T20:05:48.628Z,5.68
2023-08-20T20:08:19.032Z,5.25
2023-08-20T20:10:49.830Z,3.65
2023-08-20T20:13:20.070Z,3.50
2023-08-20T20:15:50.379Z,4.07
2023-08-20T20:18:20.749Z,5.00
2023-08-20T20:20:51.053Z,3.83
2023-08-20T20:23:21.301Z,3.03
2023-08-20T20:25:52.857Z,3.17
2023-08-20T20:28:23.347Z,2.90
2023-08-20T20:30:53.859Z,2.80
2023-08-20T20:33:24.266Z,2.92
2023-08-20T20:35:58.192Z,2.50
2023-08-20T20:38:30.016Z,2.20
2023-08-20T20:41:02.246Z,2.38
2023-08-20T20:43:33.130Z,2.03
2023-08-20T20:46:03.918Z,1.58
2023-08-20T20:48:36.593Z,1.95
2023-08-20T20:51:08.560Z,1.73
2023-08-20T20:53:39.321Z,2.25
2023-08-20T20:56:10.027Z,1.83
2023-08-20T20:58:48.919Z,1.95
2023-08-20T21:01:23.272Z,2.03
2023-08-20T21:03:56.044Z,1.95
2023-08-20T21:06:28.687Z,2.55
2023-08-20T21:08:59.424Z,1.88
2023-08-20T21:11:30.164Z,1.80
2023-08-20T21:14:00.468Z,1.85
2023-08-20T21:16:30.879Z,1.80
2023-08-20T21:19:02.283Z,1.95
2023-08-20T21:21:34.443Z,1.95
2023-08-20T21:24:04.812Z,1.95
2023-08-20T21:26:35.425Z,2.15
2023-08-20T21:29:05.800Z,2.30
2023-08-20T21:31:36.536Z,2.08
2023-08-20T21:34:07.135Z,2.10
2023-08-20T21:36:37.901Z,2.10
2023-08-20T21:39:09.467Z,1.92
2023-08-20T21:41:40.961Z,1.98
2023-08-20T21:44:11.327Z,1.83
2023-08-20T21:46:41.753Z,1.40
2023-08-20T21:49:12.139Z,1.50
2023-08-20T21:51:42.545Z,2.08
2023-08-20T21:54:12.886Z,1.80
2023-08-20T21:56:43.274Z,1.75
2023-08-20T22:02:34.304Z,1.60
2023-08-20T22:05:22.700Z,1.80
2023-08-20T22:07:54.354Z,1.98
2023-08-20T22:10:24.682Z,2.78
2023-08-20T22:12:57.317Z,2.08
2023-08-20T22:15:27.739Z,1.98
2023-08-20T22:17:58.108Z,1.90
2023-08-20T22:20:28.837Z,1.83
2023-08-20T22:22:59.154Z,1.73
2023-08-20T22:25:29.475Z,2.17
2023-08-20T22:27:59.830Z,2.20
2023-08-20T22:30:31.242Z,2.13
2023-08-20T22:33:01.756Z,1.88
2023-08-20T22:35:34.455Z,2.20
2023-08-20T22:38:07.917Z,2.05
2023-08-20T22:40:40.450Z,2.00
2023-08-20T22:43:10.903Z,2.00
2023-08-20T22:45:41.585Z,1.95
2023-08-20T22:48:12.072Z,1.40
2023-08-20T22:50:42.902Z,1.52
2023-08-20T22:53:13.231Z,2.22
2023-08-20T22:55:43.980Z,2.97
2023-08-20T22:58:14.292Z,2.15
2023-08-20T23:00:44.617Z,1.65
2023-08-20T23:03:15.393Z,1.85
2023-08-20T23:05:46.201Z,2.05
2023-08-20T23:08:16.506Z,1.70
2023-08-20T23:10:46.800Z,2.00
2023-08-20T23:13:17.186Z,1.90
2023-08-20T23:15:47.481Z,1.80
2023-08-20T23:18:17.823Z,2.25
2023-08-20T23:20:53.243Z,1.80
2023-08-20T23:23:24.225Z,2.10
2023-08-20T23:25:54.506Z,1.98
2023-08-20T23:28:29.096Z,1.77
2023-08-20T23:31:01.012Z,2.20
2023-08-20T23:33:31.305Z,1.98
2023-08-20T23:36:01.667Z,2.15
2023-08-20T23:38:33.815Z,2.22
2023-08-20T23:41:05.753Z,2.30
2023-08-20T23:43:37.734Z,1.98
2023-08-20T23:46:08.424Z,1.80
2023-08-20T23:48:39.169Z,1.83
2023-08-20T23:51:09.667Z,2.00
2023-08-20T23:53:40.464Z,1.92
2023-08-20T23:56:11.254Z,1.95
2023-08-20T23:58:43.229Z,1.50
